Hovedside
METAR-TAF:

METAR-TAF

Lufthavner :

Nyslott lufthavn

Nyslott, Finland

breddegrad: 61-57N, lengdegrad: 028-57E, høyde over havet: 95 m

Gjeldene værobservasjon

Denne rapporten ble laget for 23 minutter siden, klokken 12:20 UTC
Vind 12 kt fra Vest med vindkast opp mot 22 kt, skiftende mellom Sørvest og Vest-nordvest
Temperatur -1°C
Luftfuktighet 86%
Trykk 985 hPa
Sikt: 4300 m
Overskyet i en høyde av 1200 ft
lett snø

METAR: EFSA 241220Z AUTO 27012G22KT 230V290 4300 -SN OVC012 M01/M03 Q0985

Tid: 14:43 (12:43 UTC)


TAF: fraværende

Værobservasjoner og værvarsel for over 4000 flyplasser (METAR- og TAF-rapporter).

Tilgjengelige stasjoner er representert av de røde og gule prikkene på kartet.

Hold musepekeren over prikken for å se navnet på stasjonen.

Klikk så for å se værobservasjoner og -varsler.

For å forandre kartet kan du klikke på den grønne knappen med svart kryss for å zoome inn, på den grønne knappen med strek for å zoome ut, eller på de grønne pilene for å se tilstøtende kart.


METAR-TAF: